createdAt,value
2023-02-17T00:02:15.681Z,152.30
2023-02-17T00:04:42.272Z,144.98
2023-02-17T00:07:08.703Z,138.95
2023-02-17T00:09:36.906Z,131.93
2023-02-17T00:12:03.497Z,132.50
2023-02-17T00:14:29.887Z,136.32
2023-02-17T00:16:56.409Z,136.27
2023-02-17T00:19:25.932Z,134.77
2023-02-17T00:21:55.621Z,147.02
2023-02-17T00:24:23.970Z,139.43
2023-02-17T00:26:50.452Z,143.20
2023-02-17T00:29:17.449Z,141.30
2023-02-17T00:31:44.865Z,139.13
2023-02-17T00:34:11.733Z,135.60
2023-02-17T00:36:39.193Z,137.50
2023-02-17T00:39:06.907Z,139.02
2023-02-17T00:41:34.027Z,131.20
2023-02-17T00:44:00.783Z,155.88
2023-02-17T00:46:27.693Z,137.60
2023-02-17T00:48:54.618Z,145.90
2023-02-17T00:51:21.154Z,139.13
2023-02-17T00:53:47.640Z,141.15
2023-02-17T00:56:14.803Z,130.07
2023-02-17T00:58:41.801Z,128.95
2023-02-17T01:01:08.991Z,137.90
2023-02-17T01:03:35.467Z,148.45
2023-02-17T01:06:07.544Z,138.68
2023-02-17T01:08:34.267Z,127.85
2023-02-17T01:11:00.731Z,135.55
2023-02-17T01:13:27.441Z,138.18
2023-02-17T01:15:54.629Z,130.77
2023-02-17T01:18:23.840Z,120.63
2023-02-17T01:20:51.264Z,119.47
2023-02-17T01:23:17.909Z,119.50
2023-02-17T01:25:46.623Z,119.65
2023-02-17T01:28:17.475Z,130.55
2023-02-17T01:30:43.968Z,125.13
2023-02-17T01:33:10.768Z,113.10
2023-02-17T01:35:37.204Z,117.25
2023-02-17T01:38:03.645Z,115.55
2023-02-17T01:40:30.302Z,112.85
2023-02-17T01:42:56.818Z,112.30
2023-02-17T01:45:23.161Z,113.90
2023-02-17T01:48:11.879Z,108.07
2023-02-17T01:50:46.725Z,109.45
2023-02-17T01:53:16.610Z,119.05
2023-02-17T01:55:44.147Z,109.03
2023-02-17T01:58:15.918Z,106.43
2023-02-17T02:00:43.239Z,106.72
2023-02-17T02:03:14.121Z,107.63
2023-02-17T02:05:43.838Z,106.43
2023-02-17T02:08:12.091Z,108.95
2023-02-17T02:10:38.837Z,112.88
2023-02-17T02:13:05.762Z,110.60
2023-02-17T02:15:39.981Z,107.97
2023-02-17T02:18:26.595Z,103.57
2023-02-17T02:20:58.880Z,100.50
2023-02-17T02:23:56.209Z,107.20
2023-02-17T02:26:41.081Z,99.95
2023-02-17T02:29:19.717Z,94.90
2023-02-17T02:31:56.366Z,93.90
2023-02-17T02:35:05.857Z,96.50
2023-02-17T02:37:49.949Z,88.27
2023-02-17T02:40:20.113Z,89.40
2023-02-17T02:42:46.944Z,90.32
2023-02-17T02:45:13.553Z,92.85
2023-02-17T02:47:44.727Z,85.75
2023-02-17T02:50:26.966Z,87.18
2023-02-17T02:53:29.830Z,81.70
2023-02-17T02:56:17.849Z,85.93
2023-02-17T02:58:59.953Z,82.68
2023-02-17T03:01:34.013Z,81.38
2023-02-17T03:04:18.982Z,77.88
2023-02-17T03:06:55.826Z,78.13
2023-02-17T03:09:25.888Z,73.35
2023-02-17T03:11:54.788Z,76.47
2023-02-17T03:14:22.361Z,75.97
2023-02-17T03:16:49.988Z,75.80
2023-02-17T03:19:20.107Z,80.63
2023-02-17T03:21:49.256Z,79.00
2023-02-17T03:24:15.947Z,73.88
2023-02-17T03:26:42.476Z,75.68
2023-02-17T03:29:09.015Z,75.35
2023-02-17T03:31:36.060Z,70.75
2023-02-17T03:34:02.638Z,69.85
2023-02-17T03:36:29.967Z,72.38
2023-02-17T03:38:57.097Z,67.47
2023-02-17T03:41:24.060Z,73.68
2023-02-17T03:43:50.668Z,72.38
2023-02-17T03:46:17.829Z,72.40
2023-02-17T03:48:44.785Z,76.07
2023-02-17T03:51:16.639Z,77.75
2023-02-17T03:53:44.927Z,74.32
2023-02-17T03:56:13.130Z,75.68
2023-02-17T03:58:40.701Z,72.32
2023-02-17T04:01:08.725Z,72.18
2023-02-17T04:03:36.032Z,68.95
2023-02-17T04:06:03.121Z,67.25
2023-02-17T04:08:29.954Z,66.18
2023-02-17T04:10:59.523Z,65.45
2023-02-17T04:13:26.282Z,66.72
2023-02-17T04:15:53.265Z,67.10
2023-02-17T04:18:20.980Z,65.57
2023-02-17T04:20:51.702Z,70.25
2023-02-17T04:23:18.775Z,69.10
2023-02-17T04:25:46.264Z,62.22
2023-02-17T04:28:13.541Z,66.45
2023-02-17T04:30:42.292Z,63.85
2023-02-17T04:33:08.731Z,69.53
2023-02-17T04:35:35.182Z,65.40
2023-02-17T04:38:01.688Z,68.25
2023-02-17T04:40:28.123Z,67.95
2023-02-17T04:42:54.521Z,66.65
2023-02-17T04:45:22.312Z,73.28
2023-02-17T04:47:49.173Z,69.30
2023-02-17T04:50:15.715Z,72.90
2023-02-17T04:52:42.236Z,72.50
2023-02-17T04:55:09.112Z,74.60
2023-02-17T04:57:35.591Z,74.68
2023-02-17T05:00:04.005Z,70.38
2023-02-17T05:02:31.451Z,77.30
2023-02-17T05:04:57.915Z,72.20
2023-02-17T05:07:24.636Z,78.65
2023-02-17T05:09:51.025Z,78.75
2023-02-17T05:12:17.454Z,78.65
2023-02-17T05:14:43.968Z,76.15
2023-02-17T05:17:10.595Z,84.53
2023-02-17T05:19:37.034Z,80.57
2023-02-17T05:22:03.665Z,87.22
2023-02-17T05:24:30.172Z,89.68
2023-02-17T05:26:56.570Z,77.93
2023-02-17T05:29:24.124Z,84.82
2023-02-17T05:31:50.668Z,90.07
2023-02-17T05:34:17.135Z,92.28
2023-02-17T05:36:43.663Z,88.25
2023-02-17T05:39:10.137Z,84.68
2023-02-17T05:41:36.580Z,89.25
2023-02-17T05:44:03.059Z,88.65
2023-02-17T05:46:29.541Z,94.63
2023-02-17T05:48:55.969Z,94.32
2023-02-17T05:51:22.498Z,95.45
2023-02-17T05:53:49.011Z,96.90
2023-02-17T05:56:15.437Z,88.15
2023-02-17T05:58:41.809Z,89.35
2023-02-17T06:01:10.303Z,92.38
2023-02-17T06:03:37.607Z,95.47
2023-02-17T06:06:05.643Z,97.13
2023-02-17T06:08:32.315Z,102.60
2023-02-17T06:10:58.895Z,103.95
2023-02-17T06:13:25.468Z,98.72
2023-02-17T06:15:51.923Z,100.68
2023-02-17T06:18:19.728Z,101.75
2023-02-17T06:20:46.310Z,93.63
2023-02-17T06:23:12.756Z,100.68
2023-02-17T06:25:39.177Z,98.63
2023-02-17T06:28:05.720Z,108.82
2023-02-17T06:30:32.253Z,100.07
2023-02-17T06:32:59.238Z,108.15
2023-02-17T06:35:26.454Z,104.60
2023-02-17T06:37:53.337Z,104.80
2023-02-17T06:40:20.158Z,105.57
2023-02-17T06:42:46.643Z,114.57
2023-02-17T06:45:13.336Z,112.65
2023-02-17T06:47:39.781Z,113.00
2023-02-17T06:50:07.124Z,114.18
2023-02-17T06:52:33.780Z,120.07
2023-02-17T06:55:00.231Z,120.28
2023-02-17T06:57:26.911Z,119.43
2023-02-17T06:59:53.453Z,114.43
2023-02-17T07:02:20.609Z,113.32
2023-02-17T07:04:47.158Z,114.72
2023-02-17T07:07:13.565Z,111.30
2023-02-17T07:09:40.556Z,121.78
2023-02-17T07:12:07.429Z,116.57
2023-02-17T07:14:34.755Z,111.75
2023-02-17T07:17:01.362Z,111.50
2023-02-17T07:19:27.964Z,115.05
2023-02-17T07:21:54.607Z,104.47
2023-02-17T07:24:21.243Z,114.60
2023-02-17T07:26:48.532Z,109.90
2023-02-17T07:29:15.036Z,114.97
2023-02-17T07:31:41.524Z,110.05
2023-02-17T07:34:08.062Z,104.95
2023-02-17T07:36:34.843Z,108.75
2023-02-17T07:39:02.434Z,110.72
2023-02-17T07:41:30.578Z,108.30
2023-02-17T07:43:57.661Z,104.97
2023-02-17T07:46:24.742Z,109.82
2023-02-17T07:48:51.156Z,105.72
2023-02-17T07:51:21.084Z,96.00
2023-02-17T07:53:48.663Z,101.57
2023-02-17T07:56:16.905Z,93.95
2023-02-17T07:58:44.826Z,90.95
2023-02-17T08:01:12.771Z,91.43
2023-02-17T08:03:40.143Z,93.88
2023-02-17T08:06:10.925Z,87.55
2023-02-17T08:08:56.149Z,89.50
2023-02-17T08:11:49.805Z,87.25
2023-02-17T08:14:16.683Z,87.40
2023-02-17T08:16:43.367Z,83.57
2023-02-17T08:19:09.848Z,85.20
2023-02-17T08:21:36.348Z,85.63
2023-02-17T08:24:02.963Z,87.05
2023-02-17T08:26:29.729Z,90.00
2023-02-17T08:28:56.800Z,96.95
2023-02-17T08:31:29.999Z,82.95
2023-02-17T08:33:57.440Z,77.28
2023-02-17T08:36:24.896Z,71.95
2023-02-17T08:38:52.682Z,74.82
2023-02-17T08:41:23.594Z,76.03
2023-02-17T08:43:50.970Z,73.88
2023-02-17T08:46:19.735Z,73.88
2023-02-17T08:48:47.471Z,75.47
2023-02-17T08:51:25.776Z,79.18
2023-02-17T08:53:55.102Z,75.68
2023-02-17T08:56:23.252Z,71.80
2023-02-17T08:58:50.255Z,78.75
2023-02-17T09:01:18.953Z,74.05
2023-02-17T09:03:47.250Z,74.20
2023-02-17T09:06:15.661Z,65.25
2023-02-17T09:08:43.865Z,68.20
2023-02-17T09:11:15.328Z,71.43
2023-02-17T09:13:41.790Z,79.47
2023-02-17T09:16:08.653Z,68.50
2023-02-17T09:18:35.411Z,65.80
2023-02-17T09:21:12.006Z,69.07
2023-02-17T09:23:39.752Z,70.82
2023-02-17T09:26:11.894Z,78.05
2023-02-17T09:28:39.172Z,77.65
2023-02-17T09:31:24.132Z,78.57
2023-02-17T09:33:51.617Z,75.65
2023-02-17T09:36:30.918Z,87.00
2023-02-17T09:38:57.728Z,80.27
2023-02-17T09:41:32.365Z,84.43
2023-02-17T09:43:59.600Z,81.55
2023-02-17T09:46:44.838Z,82.43
2023-02-17T09:49:22.706Z,82.32
2023-02-17T09:54:41.520Z,82.50
2023-02-17T09:57:14.321Z,76.45
2023-02-17T09:59:46.637Z,83.22
2023-02-17T10:02:41.462Z,87.05
2023-02-17T10:05:11.393Z,81.47
2023-02-17T10:07:51.200Z,86.60
2023-02-17T10:10:25.987Z,92.40
2023-02-17T10:13:00.099Z,86.97
2023-02-17T10:15:31.959Z,86.28
2023-02-17T10:18:26.457Z,87.20
2023-02-17T10:21:02.320Z,94.43
2023-02-17T10:23:29.712Z,95.70
2023-02-17T10:26:14.555Z,102.00
2023-02-17T10:28:50.422Z,96.88
2023-02-17T10:31:33.044Z,108.43
2023-02-17T10:34:08.733Z,99.15
2023-02-17T10:37:01.384Z,93.60
2023-02-17T10:39:44.728Z,92.22
2023-02-17T10:42:21.978Z,101.07
2023-02-17T10:44:50.996Z,87.47
2023-02-17T10:47:19.092Z,96.57
2023-02-17T10:49:49.607Z,82.03
2023-02-17T10:52:19.395Z,88.78
2023-02-17T10:55:00.517Z,82.18
2023-02-17T10:57:35.448Z,85.85
2023-02-17T11:00:02.193Z,89.53
2023-02-17T11:02:44.682Z,83.22
2023-02-17T11:05:41.510Z,81.72
2023-02-17T11:08:40.138Z,77.53
2023-02-17T11:11:24.598Z,90.88
2023-02-17T11:14:06.392Z,75.18
2023-02-17T11:16:37.588Z,81.50
2023-02-17T11:19:06.656Z,88.60
2023-02-17T11:21:33.643Z,77.80
2023-02-17T11:24:05.973Z,86.32
2023-02-17T11:26:35.190Z,75.80
2023-02-17T11:29:16.101Z,77.17
2023-02-17T11:31:42.695Z,83.95
2023-02-17T11:34:15.106Z,92.13
2023-02-17T11:36:45.679Z,79.43
2023-02-17T11:39:22.088Z,82.55
2023-02-17T11:41:48.992Z,82.93
2023-02-17T11:44:28.387Z,78.13
2023-02-17T11:47:13.444Z,77.73
2023-02-17T11:50:26.120Z,83.68
2023-02-17T11:53:39.013Z,85.22
2023-02-17T11:56:20.767Z,74.40
2023-02-17T11:59:24.624Z,75.70
2023-02-17T12:02:06.254Z,76.25
2023-02-17T12:04:38.204Z,78.60
2023-02-17T12:07:31.785Z,83.15
2023-02-17T12:10:30.541Z,73.53
2023-02-17T12:13:23.211Z,78.07
2023-02-17T12:15:59.846Z,75.38
2023-02-17T12:18:41.161Z,78.03
2023-02-17T12:21:07.476Z,77.07
2023-02-17T12:24:05.450Z,73.25
2023-02-17T12:26:42.104Z,70.57
2023-02-17T12:29:29.569Z,68.72
2023-02-17T12:32:10.319Z,74.18
2023-02-17T12:34:44.154Z,64.13
2023-02-17T12:37:26.023Z,57.35
2023-02-17T12:39:59.489Z,65.45
2023-02-17T12:42:51.738Z,63.83
2023-02-17T12:45:22.062Z,61.20
2023-02-17T12:48:01.516Z,56.67
2023-02-17T12:50:35.373Z,56.08
2023-02-17T12:53:05.747Z,55.22
2023-02-17T12:55:48.315Z,52.47
2023-02-17T12:58:25.901Z,47.80
2023-02-17T13:01:06.876Z,50.47
2023-02-17T13:03:35.801Z,47.08
2023-02-17T13:06:30.275Z,51.42
2023-02-17T13:09:02.778Z,46.95
2023-02-17T13:11:32.468Z,46.72
2023-02-17T13:14:29.796Z,51.10
2023-02-17T13:16:56.645Z,48.30
2023-02-17T13:19:32.679Z,46.72
2023-02-17T13:22:02.261Z,51.40
2023-02-17T13:24:34.796Z,50.85
2023-02-17T13:27:32.858Z,47.10
2023-02-17T13:30:05.408Z,54.10
2023-02-17T13:32:34.495Z,53.70
2023-02-17T13:35:07.301Z,55.65
2023-02-17T13:37:33.689Z,49.25
2023-02-17T13:40:02.095Z,53.67
2023-02-17T13:42:40.208Z,53.88
2023-02-17T13:45:34.840Z,55.78
2023-02-17T13:48:20.340Z,51.53
2023-02-17T13:50:53.172Z,49.38
2023-02-17T13:53:40.954Z,50.17
2023-02-17T13:56:12.261Z,49.38
2023-02-17T13:58:41.189Z,46.58
2023-02-17T14:01:14.555Z,42.63
2023-02-17T14:03:40.911Z,50.85
2023-02-17T14:06:18.607Z,46.08
2023-02-17T14:08:45.053Z,48.10
2023-02-17T14:11:19.395Z,39.92
2023-02-17T14:13:48.873Z,40.22
2023-02-17T14:16:34.096Z,44.83
2023-02-17T14:19:20.824Z,43.45
2023-02-17T14:21:56.566Z,43.25
2023-02-17T14:24:35.603Z,36.75
2023-02-17T14:27:06.921Z,41.20
2023-02-17T14:29:40.222Z,31.67
2023-02-17T14:32:07.762Z,27.20
2023-02-17T14:34:36.213Z,31.58
2023-02-17T14:37:09.724Z,25.95
2023-02-17T14:39:36.656Z,37.15
2023-02-17T14:42:03.237Z,31.90
2023-02-17T14:44:29.696Z,27.77
2023-02-17T14:46:56.096Z,27.63
2023-02-17T14:49:22.531Z,30.15
2023-02-17T14:51:49.063Z,22.55
2023-02-17T14:54:17.300Z,29.50
2023-02-17T14:56:49.451Z,30.48
2023-02-17T14:59:15.999Z,38.33
2023-02-17T15:01:42.516Z,30.40
2023-02-17T15:04:08.944Z,32.45
2023-02-17T15:06:43.381Z,33.80
2023-02-17T15:09:13.266Z,34.40
2023-02-17T15:11:41.537Z,37.80
2023-02-17T15:14:14.612Z,35.78
2023-02-17T15:16:41.001Z,34.13
2023-02-17T15:19:09.234Z,40.78
2023-02-17T15:21:38.008Z,38.17
2023-02-17T15:24:14.095Z,35.22
2023-02-17T15:26:40.582Z,43.15
2023-02-17T15:29:15.322Z,41.88
2023-02-17T15:31:41.907Z,46.03
2023-02-17T15:34:20.264Z,36.08
2023-02-17T15:36:47.329Z,39.78
2023-02-17T15:39:16.995Z,42.45
2023-02-17T15:41:44.938Z,44.20
2023-02-17T15:44:26.169Z,46.50
2023-02-17T15:46:54.654Z,40.85
2023-02-17T15:49:21.731Z,38.92
2023-02-17T15:51:48.357Z,49.35
2023-02-17T15:54:19.026Z,42.67
2023-02-17T15:56:49.108Z,42.22
2023-02-17T15:59:24.537Z,38.85
2023-02-17T16:01:51.250Z,42.45
2023-02-17T16:04:17.906Z,35.53
2023-02-17T16:06:44.459Z,46.60
2023-02-17T16:09:11.250Z,44.10
2023-02-17T16:11:47.566Z,40.22
2023-02-17T16:14:24.016Z,38.85
2023-02-17T16:16:51.032Z,33.83
2023-02-17T16:19:17.450Z,48.65
2023-02-17T16:21:43.912Z,40.45
2023-02-17T16:24:10.323Z,35.33
2023-02-17T16:26:38.264Z,42.45
2023-02-17T16:29:13.917Z,48.13
2023-02-17T16:31:40.480Z,45.47
2023-02-17T16:34:06.983Z,45.47
2023-02-17T16:36:35.758Z,37.60
2023-02-17T16:39:10.313Z,48.20
2023-02-17T16:41:36.762Z,50.58
2023-02-17T16:44:03.209Z,39.90
2023-02-17T16:46:33.130Z,44.08
2023-02-17T16:49:02.573Z,40.72
2023-02-17T16:51:29.293Z,37.97
2023-02-17T16:53:56.270Z,48.30
2023-02-17T16:56:29.802Z,40.92
2023-02-17T16:58:56.236Z,46.63
2023-02-17T17:01:24.251Z,53.67
2023-02-17T17:03:50.904Z,47.67
2023-02-17T17:06:27.516Z,48.15
2023-02-17T17:08:54.587Z,52.70
2023-02-17T17:11:24.773Z,48.97
2023-02-17T17:16:34.695Z,42.05
2023-02-17T17:19:02.057Z,51.33
2023-02-17T17:21:28.945Z,41.70
2023-02-17T17:23:55.615Z,41.45
2023-02-17T17:26:31.881Z,45.50
2023-02-17T17:28:58.724Z,50.80
2023-02-17T17:31:25.979Z,67.72
2023-02-17T17:33:53.450Z,45.60
2023-02-17T17:36:26.740Z,49.13
2023-02-17T17:38:54.512Z,48.90
2023-02-17T17:41:22.571Z,47.72
2023-02-17T17:43:49.767Z,44.72
2023-02-17T17:46:18.603Z,39.92
2023-02-17T17:48:45.260Z,45.10
2023-02-17T17:51:17.982Z,36.50
2023-02-17T17:53:44.881Z,43.42
2023-02-17T17:56:33.572Z,41.53
2023-02-17T17:59:01.935Z,36.42
2023-02-17T18:01:28.444Z,51.45
2023-02-17T18:03:57.225Z,49.10
2023-02-17T18:06:40.712Z,46.55
2023-02-17T18:09:13.295Z,49.80
2023-02-17T18:11:44.531Z,47.72
2023-02-17T18:14:13.993Z,48.88
2023-02-17T18:16:42.569Z,49.70
2023-02-17T18:19:09.043Z,50.47
2023-02-17T18:21:35.876Z,48.13
2023-02-17T18:24:03.540Z,46.75
2023-02-17T18:26:30.415Z,54.67
2023-02-17T18:28:57.509Z,45.22
2023-02-17T18:31:29.495Z,39.80
2023-02-17T18:33:56.506Z,51.13
2023-02-17T18:36:26.098Z,51.13
2023-02-17T18:38:54.503Z,52.45
2023-02-17T18:41:24.492Z,42.70
2023-02-17T18:43:51.185Z,42.97
2023-02-17T18:46:18.242Z,48.83
2023-02-17T18:48:45.042Z,49.20
2023-02-17T18:51:14.481Z,39.90
2023-02-17T18:53:41.834Z,49.83
2023-02-17T18:56:13.280Z,57.40
2023-02-17T18:58:40.311Z,43.85
2023-02-17T19:01:07.335Z,58.00
2023-02-17T19:03:33.725Z,43.35
2023-02-17T19:06:08.965Z,49.97
2023-02-17T19:08:35.502Z,59.65
2023-02-17T19:11:02.913Z,43.05
2023-02-17T19:13:29.428Z,55.33
2023-02-17T19:16:04.719Z,48.60
2023-02-17T19:18:31.308Z,65.60
2023-02-17T19:20:59.727Z,50.33
2023-02-17T19:23:26.346Z,45.67
2023-02-17T19:25:52.904Z,52.40
2023-02-17T19:28:19.290Z,58.17
2023-02-17T19:30:45.765Z,48.63
2023-02-17T19:33:12.268Z,50.08
2023-02-17T19:35:42.820Z,46.55
2023-02-17T19:38:09.256Z,65.63
2023-02-17T19:40:36.417Z,54.42
2023-02-17T19:43:03.147Z,59.67
2023-02-17T19:45:29.934Z,60.35
2023-02-17T19:47:56.379Z,40.60
2023-02-17T19:50:22.914Z,50.92
2023-02-17T19:52:49.523Z,46.60
2023-02-17T19:55:16.009Z,56.33
2023-02-17T19:57:42.539Z,51.20
2023-02-17T20:00:10.105Z,40.47
2023-02-17T20:02:36.971Z,43.28
2023-02-17T20:05:03.648Z,51.47
2023-02-17T20:07:31.628Z,46.72
2023-02-17T20:09:58.103Z,48.42
2023-02-17T20:12:24.582Z,55.70
2023-02-17T20:14:53.150Z,40.03
2023-02-17T20:17:19.589Z,37.08
2023-02-17T20:19:46.003Z,38.05
2023-02-17T20:22:12.537Z,45.85
2023-02-17T20:24:40.730Z,38.28
2023-02-17T20:27:07.627Z,47.17
2023-02-17T20:29:36.200Z,57.28
2023-02-17T20:32:03.332Z,45.10
2023-02-17T20:34:35.867Z,36.38
2023-02-17T20:37:02.640Z,42.50
2023-02-17T20:39:29.304Z,44.95
2023-02-17T20:41:56.400Z,51.80
2023-02-17T20:44:27.728Z,54.10
2023-02-17T20:46:55.213Z,45.28
2023-02-17T20:49:22.140Z,48.13
2023-02-17T20:51:48.945Z,40.70
2023-02-17T20:54:15.660Z,32.42
2023-02-17T20:56:44.646Z,44.92
2023-02-17T20:59:13.050Z,42.22
2023-02-17T21:01:41.154Z,42.95
2023-02-17T21:04:08.352Z,50.70
2023-02-17T21:06:41.278Z,34.60
2023-02-17T21:09:16.895Z,40.63
2023-02-17T21:11:44.046Z,48.95
2023-02-17T21:14:10.850Z,53.03
2023-02-17T21:16:37.913Z,44.80
2023-02-17T21:19:04.728Z,45.67
2023-02-17T21:21:31.592Z,48.50
2023-02-17T21:23:59.140Z,57.20
2023-02-17T21:26:26.422Z,50.35
2023-02-17T21:28:54.215Z,59.10
2023-02-17T21:31:20.898Z,50.38
2023-02-17T21:33:47.463Z,48.42
2023-02-17T21:36:16.844Z,45.42
2023-02-17T21:38:43.340Z,54.93
2023-02-17T21:41:14.070Z,45.70
2023-02-17T21:43:59.870Z,49.70
2023-02-17T21:46:27.320Z,43.85
2023-02-17T21:48:55.523Z,42.72
2023-02-17T21:51:21.932Z,42.17
2023-02-17T21:53:48.709Z,47.38
2023-02-17T21:56:15.921Z,46.25
2023-02-17T21:58:50.090Z,41.08
2023-02-17T22:01:17.073Z,46.70
2023-02-17T22:03:43.600Z,37.95
2023-02-17T22:06:18.129Z,36.05
2023-02-17T22:08:45.522Z,47.63
2023-02-17T22:11:27.165Z,41.17
2023-02-17T22:13:59.270Z,46.83
2023-02-17T22:16:26.307Z,52.80
2023-02-17T22:18:53.011Z,47.50
2023-02-17T22:21:19.462Z,52.13
2023-02-17T22:23:46.076Z,48.22
2023-02-17T22:26:22.648Z,49.05
2023-02-17T22:28:50.399Z,49.90
2023-02-17T22:31:19.530Z,41.97
2023-02-17T22:33:46.524Z,54.22
2023-02-17T22:36:16.272Z,42.78
2023-02-17T22:38:43.083Z,48.63
2023-02-17T22:41:12.257Z,52.08
2023-02-17T22:43:40.584Z,42.65
2023-02-17T22:46:09.257Z,43.88
2023-02-17T22:48:37.760Z,44.83
2023-02-17T22:51:09.232Z,45.72
2023-02-17T22:53:36.627Z,49.80
2023-02-17T22:56:04.951Z,42.33
2023-02-17T22:58:32.354Z,48.22
2023-02-17T23:01:13.245Z,48.17
2023-02-17T23:03:40.476Z,28.98
2023-02-17T23:06:11.533Z,46.15
2023-02-17T23:08:38.172Z,42.60
2023-02-17T23:11:10.040Z,42.20
2023-02-17T23:13:36.999Z,45.92
2023-02-17T23:16:04.221Z,58.47
2023-02-17T23:18:32.000Z,44.22
2023-02-17T23:20:59.701Z,41.75
2023-02-17T23:23:26.594Z,48.45
2023-02-17T23:25:55.164Z,36.47
2023-02-17T23:28:24.603Z,45.55
2023-02-17T23:30:52.204Z,42.40
2023-02-17T23:33:20.853Z,40.20
2023-02-17T23:35:47.686Z,43.30
2023-02-17T23:38:17.664Z,39.88
2023-02-17T23:40:51.251Z,34.92
2023-02-17T23:43:18.873Z,43.53
2023-02-17T23:45:45.562Z,50.20
2023-02-17T23:48:12.339Z,52.97
2023-02-17T23:50:38.993Z,46.35
2023-02-17T23:53:05.974Z,41.33
2023-02-17T23:55:32.487Z,33.50
2023-02-17T23:58:00.639Z,37.38
